Time;durP1;ratioP1;P1;durP2;ratioP2;P2;SDS_P1;SDS_P2;PMS_P1;PMS_P2;Temp;Humidity;BMP_temperature;BMP_pressure;BME280_temperature;BME280_humidity;BME280_pressure;Samples;Min_cycle;Max_cycle;Signal;HPM_P1;HPM_P2
2023/04/02 00:02:22;;;;;;;0.50;0.50;;;7.50;99.90;;;;;;4978837;28;20180;-39
2023/04/02 00:05:18;;;;;;;0.60;0.60;;;7.50;99.90;;;;;;4979217;28;20182;-41
2023/04/02 00:07:50;;;;;;;1.07;0.77;;;7.50;99.90;;;;;;5011472;28;20249;-41
2023/04/02 00:10:25;;;;;;;1.13;0.70;;;7.40;99.90;;;;;;4999841;28;20215;-42
2023/04/02 00:13:05;;;;;;;1.00;0.93;;;7.40;99.90;;;;;;4994106;28;20207;-41
2023/04/02 00:15:32;;;;;;;1.03;0.80;;;7.40;99.90;;;;;;4995258;28;20182;-43
2023/04/02 00:17:58;;;;;;;1.30;1.20;;;7.30;99.90;;;;;;5002808;28;20187;-39
2023/04/02 00:20:26;;;;;;;1.27;1.00;;;7.30;99.90;;;;;;4981160;28;20183;-40
2023/04/02 00:22:53;;;;;;;1.10;1.00;;;7.30;99.90;;;;;;4978546;28;20234;-41
2023/04/02 00:25:19;;;;;;;2.83;1.53;;;7.30;99.90;;;;;;5005937;28;20189;-39
2023/04/02 00:27:45;;;;;;;3.27;2.20;;;7.20;99.90;;;;;;4979121;28;20201;-39
2023/04/02 00:30:12;;;;;;;3.03;2.23;;;7.20;99.90;;;;;;4978995;28;20218;-40
2023/04/02 00:32:38;;;;;;;4.20;1.90;;;7.20;99.90;;;;;;4995468;28;20202;-40
2023/04/02 00:35:17;;;;;;;2.57;1.30;;;7.20;99.90;;;;;;4994231;28;20176;-40
2023/04/02 00:37:43;;;;;;;1.13;1.00;;;7.20;99.90;;;;;;4979343;28;20187;-39
2023/04/02 00:40:14;;;;;;;0.60;0.60;;;7.10;99.90;;;;;;4999570;28;20196;-39
2023/04/02 00:42:40;;;;;;;0.70;0.70;;;7.00;99.90;;;;;;4975594;28;20247;-41
2023/04/02 00:45:17;;;;;;;1.03;0.80;;;6.90;99.90;;;;;;4966688;28;20171;-42
2023/04/02 00:47:43;;;;;;;0.60;0.60;;;6.90;99.90;;;;;;4974886;28;20648;-39
2023/04/02 00:50:15;;;;;;;0.73;0.60;;;6.70;99.90;;;;;;4971380;28;20209;-38
2023/04/02 00:52:45;;;;;;;1.70;0.70;;;6.70;99.90;;;;;;4995948;28;20330;-40
2023/04/02 00:55:41;;;;;;;0.60;0.60;;;6.60;99.90;;;;;;4979233;28;20190;-39
2023/04/02 00:58:27;;;;;;;1.33;0.60;;;6.50;99.90;;;;;;4996948;28;20661;-41
2023/04/02 01:00:55;;;;;;;0.80;0.60;;;6.40;99.90;;;;;;4980934;28;20168;-40
2023/04/02 01:03:21;;;;;;;1.00;0.70;;;6.40;99.90;;;;;;4975370;28;20218;-36
2023/04/02 01:06:01;;;;;;;0.60;0.60;;;6.30;99.90;;;;;;4969200;28;20181;-38
2023/04/02 01:08:51;;;;;;;0.70;0.70;;;6.20;99.90;;;;;;4994486;28;20578;-36
2023/04/02 01:11:28;;;;;;;0.60;0.53;;;6.20;99.90;;;;;;5010464;28;20177;-36
2023/04/02 01:14:18;;;;;;;0.50;0.50;;;6.20;99.90;;;;;;4977000;28;20198;-36
2023/04/02 01:17:07;;;;;;;0.70;0.70;;;6.20;99.90;;;;;;4994105;28;20184;-38
2023/04/02 01:19:52;;;;;;;1.23;0.77;;;6.20;99.90;;;;;;4975357;28;20226;-36
2023/04/02 01:22:17;;;;;;;0.90;0.57;;;6.20;99.90;;;;;;4999723;28;20220;-36
2023/04/02 01:24:44;;;;;;;2.03;0.60;;;6.20;99.90;;;;;;5007063;28;20206;-36
2023/04/02 01:27:28;;;;;;;1.13;0.70;;;6.20;99.90;;;;;;4961297;28;20183;-37
2023/04/02 01:29:57;;;;;;;0.60;0.60;;;6.30;99.90;;;;;;4993929;28;20213;-36
2023/04/02 01:32:26;;;;;;;0.57;0.57;;;6.30;99.90;;;;;;4992539;28;20699;-36
2023/04/02 01:34:53;;;;;;;0.90;0.70;;;6.30;99.90;;;;;;4983951;28;20162;-37
2023/04/02 01:37:45;;;;;;;0.60;0.60;;;6.30;99.90;;;;;;4994368;28;20188;-36
2023/04/02 01:40:55;;;;;;;1.90;0.90;;;6.40;99.90;;;;;;4984276;28;20182;-37
2023/04/02 01:43:50;;;;;;;0.60;0.60;;;6.50;99.90;;;;;;4992987;28;20205;-37
2023/04/02 01:46:30;;;;;;;1.03;0.70;;;6.50;99.90;;;;;;4989145;28;20226;-36
2023/04/02 01:49:01;;;;;;;1.00;0.70;;;6.60;99.90;;;;;;4974556;28;20242;-42
2023/04/02 01:51:32;;;;;;;0.73;0.73;;;6.70;99.90;;;;;;5007327;28;20182;-40
2023/04/02 01:54:03;;;;;;;1.43;0.90;;;6.70;99.90;;;;;;4985799;28;20205;-42
2023/04/02 01:56:29;;;;;;;0.77;0.70;;;6.70;99.90;;;;;;4994097;28;20258;-39
2023/04/02 01:58:57;;;;;;;2.27;0.90;;;6.80;99.90;;;;;;4958127;28;20187;-40
2023/04/02 02:01:32;;;;;;;1.60;0.97;;;6.90;99.90;;;;;;4971704;28;20199;-44
2023/04/02 02:03:58;;;;;;;1.33;0.80;;;6.90;99.90;;;;;;4976933;28;20205;-39
2023/04/02 02:06:23;;;;;;;2.97;1.10;;;7.00;99.90;;;;;;4977198;28;20189;-41
2023/04/02 02:09:06;;;;;;;1.00;0.70;;;7.00;99.90;;;;;;4988420;28;20221;-41
2023/04/02 02:11:35;;;;;;;1.10;0.97;;;7.00;99.90;;;;;;4968373;28;20179;-41
2023/04/02 02:14:12;;;;;;;1.00;0.90;;;7.10;99.90;;;;;;4992852;28;20229;-40
2023/04/02 02:16:40;;;;;;;2.13;1.03;;;7.10;99.90;;;;;;4991697;28;20178;-39
2023/04/02 02:19:19;;;;;;;1.17;1.00;;;7.10;99.90;;;;;;4990718;28;20697;-39
2023/04/02 02:21:51;;;;;;;1.47;1.10;;;7.00;99.90;;;;;;4987406;28;20237;-41
2023/04/02 02:24:24;;;;;;;2.23;1.17;;;7.10;99.90;;;;;;4991157;28;20218;-42
2023/04/02 02:27:05;;;;;;;1.57;1.00;;;7.10;99.90;;;;;;4974369;28;20222;-41
2023/04/02 02:29:36;;;;;;;3.10;1.13;;;7.20;99.90;;;;;;4990987;28;20202;-39
2023/04/02 02:32:03;;;;;;;1.20;1.10;;;7.20;99.90;;;;;;4970209;28;20179;-39
2023/04/02 02:34:36;;;;;;;1.47;0.90;;;7.20;99.90;;;;;;4977646;28;20180;-39
2023/04/02 02:37:13;;;;;;;1.10;1.00;;;7.20;99.90;;;;;;4979419;28;20207;-38
2023/04/02 02:39:52;;;;;;;1.20;1.00;;;7.20;99.90;;;;;;4981152;28;20186;-40
2023/04/02 02:42:35;;;;;;;1.53;1.10;;;7.20;99.90;;;;;;4978836;28;20211;-39
2023/04/02 02:45:05;;;;;;;1.53;1.13;;;7.20;99.90;;;;;;4993042;28;20207;-39
2023/04/02 02:47:35;;;;;;;2.47;1.43;;;7.20;99.90;;;;;;4968786;28;20274;-40
2023/04/02 02:50:07;;;;;;;2.10;1.20;;;7.20;99.90;;;;;;4982393;28;20247;-41
2023/04/02 02:52:37;;;;;;;1.87;1.00;;;7.20;99.90;;;;;;4996559;28;20214;-39
2023/04/02 02:55:11;;;;;;;2.13;1.10;;;7.20;99.90;;;;;;4993377;28;20179;-39
2023/04/02 02:57:52;;;;;;;1.83;1.30;;;7.20;99.90;;;;;;4962497;28;20178;-38
2023/04/02 03:00:23;;;;;;;1.10;1.00;;;7.20;99.90;;;;;;4970921;28;20182;-38
2023/04/02 03:02:53;;;;;;;1.10;1.00;;;7.20;99.90;;;;;;4995076;28;20209;-40
2023/04/02 03:05:23;;;;;;;1.63;0.97;;;7.30;99.90;;;;;;4993588;28;20209;-40
2023/04/02 03:07:55;;;;;;;1.63;1.00;;;7.30;99.90;;;;;;4990499;28;20189;-39
2023/04/02 03:10:35;;;;;;;1.70;1.17;;;7.30;99.90;;;;;;4993644;28;20625;-40
2023/04/02 03:13:31;;;;;;;2.10;1.40;;;7.30;99.90;;;;;;4961775;28;20199;-38
2023/04/02 03:16:10;;;;;;;1.67;1.47;;;7.30;99.90;;;;;;4981475;28;20183;-42
2023/04/02 03:18:50;;;;;;;2.23;1.10;;;7.30;99.90;;;;;;4984899;28;20274;-45
2023/04/02 03:21:29;;;;;;;1.03;0.93;;;7.30;99.90;;;;;;5007318;28;20240;-39
2023/04/02 03:24:26;;;;;;;2.20;1.00;;;7.30;99.90;;;;;;4978473;28;20218;-39
2023/04/02 03:27:12;;;;;;;1.50;0.90;;;7.30;99.90;;;;;;4988274;28;20624;-39
2023/04/02 03:29:43;;;;;;;1.60;1.10;;;7.30;99.90;;;;;;4977194;28;20194;-40
2023/04/02 03:32:19;;;;;;;0.87;0.70;;;7.30;99.90;;;;;;4995336;28;20176;-41
2023/04/02 03:35:23;;;;;;;1.10;0.97;;;7.30;99.90;;;;;;4994306;28;20249;-40
2023/04/02 03:38:16;;;;;;;1.33;1.20;;;7.30;99.90;;;;;;5034911;23;20260;-33
2023/04/02 03:40:58;;;;;;;3.23;1.47;;;7.30;99.90;;;;;;5011808;28;20258;-33
2023/04/02 03:43:27;;;;;;;1.77;0.97;;;7.30;99.90;;;;;;4994925;28;20278;-32
2023/04/02 03:46:09;;;;;;;2.87;1.00;;;7.30;99.90;;;;;;5012160;28;20261;-33
2023/04/02 03:48:42;;;;;;;1.30;0.90;;;7.30;99.90;;;;;;5003754;28;20199;-32
2023/04/02 03:51:35;;;;;;;1.80;1.00;;;7.20;99.90;;;;;;5012440;28;20182;-44
2023/04/02 03:54:02;;;;;;;1.03;0.80;;;7.20;99.90;;;;;;5003861;28;20236;-43
2023/04/02 03:56:31;;;;;;;1.40;0.90;;;7.20;99.90;;;;;;5005258;28;20262;-42
2023/04/02 03:59:08;;;;;;;1.77;1.00;;;7.30;99.90;;;;;;4989425;28;20272;-41
2023/04/02 04:01:48;;;;;;;2.60;1.33;;;7.30;99.90;;;;;;5011864;28;20191;-44
2023/04/02 04:04:18;;;;;;;1.30;0.87;;;7.20;99.90;;;;;;4980737;28;20190;-43
2023/04/02 04:06:48;;;;;;;1.20;0.87;;;7.20;99.90;;;;;;5024945;28;20206;-43
2023/04/02 04:09:34;;;;;;;1.40;1.00;;;7.20;99.90;;;;;;5008817;28;20211;-43
2023/04/02 04:12:15;;;;;;;4.90;1.03;;;7.30;99.90;;;;;;4976547;28;20305;-40
2023/04/02 04:14:48;;;;;;;1.30;0.90;;;7.20;99.90;;;;;;4992466;28;20219;-43
2023/04/02 04:17:28;;;;;;;2.13;0.90;;;7.20;99.90;;;;;;5005847;28;20195;-44
2023/04/02 04:20:13;;;;;;;1.10;1.00;;;7.30;99.90;;;;;;5010871;28;20181;-43
2023/04/02 04:22:39;;;;;;;0.80;0.80;;;7.30;99.90;;;;;;5008906;28;20232;-43
2023/04/02 04:25:28;;;;;;;3.23;1.10;;;7.30;99.90;;;;;;5011670;28;20228;-44
2023/04/02 04:28:43;;;;;;;1.10;0.90;;;7.30;99.90;;;;;;4993825;28;20203;-43
2023/04/02 04:31:38;;;;;;;1.27;0.80;;;7.30;99.90;;;;;;4993255;28;20203;-43
2023/04/02 04:34:11;;;;;;;2.13;0.80;;;7.30;99.90;;;;;;4995322;28;20225;-44
2023/04/02 04:36:53;;;;;;;1.40;0.97;;;7.30;99.90;;;;;;4999334;28;20284;-44
2023/04/02 04:39:43;;;;;;;1.10;1.00;;;7.30;99.90;;;;;;5011129;28;20187;-44
2023/04/02 04:42:26;;;;;;;1.73;0.90;;;7.30;99.90;;;;;;5011089;28;20175;-44
2023/04/02 04:45:07;;;;;;;1.13;1.00;;;7.30;99.90;;;;;;5029091;28;20183;-44
2023/04/02 04:47:57;;;;;;;1.33;0.90;;;7.30;99.90;;;;;;5026791;28;20199;-43
2023/04/02 04:50:44;;;;;;;1.30;1.03;;;7.20;99.90;;;;;;5028316;28;20199;-43
2023/04/02 04:53:18;;;;;;;1.00;0.90;;;7.20;99.90;;;;;;5025846;28;20170;-43
2023/04/02 04:55:49;;;;;;;1.27;1.10;;;7.20;99.90;;;;;;5030271;28;20178;-39
2023/04/02 04:58:36;;;;;;;1.63;1.00;;;7.20;99.90;;;;;;4998277;28;20212;-42
2023/04/02 05:01:14;;;;;;;2.27;1.20;;;7.20;99.90;;;;;;5015045;28;20268;-40
2023/04/02 05:04:20;;;;;;;1.60;1.20;;;7.10;99.90;;;;;;5020069;28;20179;-42
2023/04/02 05:06:49;;;;;;;3.73;2.50;;;7.10;99.90;;;;;;4995686;28;20207;-42
2023/04/02 05:09:35;;;;;;;1.90;1.40;;;7.10;99.90;;;;;;5028548;28;20202;-42
2023/04/02 05:12:29;;;;;;;3.40;1.37;;;7.10;99.90;;;;;;4999003;28;20351;-42
2023/04/02 05:15:07;;;;;;;0.90;0.90;;;7.10;99.90;;;;;;5008457;28;20181;-41
2023/04/02 05:18:06;;;;;;;1.90;0.90;;;7.10;99.90;;;;;;5023092;28;20191;-40
2023/04/02 05:20:49;;;;;;;1.77;1.07;;;7.10;99.90;;;;;;5028401;28;20190;-40
2023/04/02 05:23:26;;;;;;;1.83;1.00;;;7.10;99.90;;;;;;5024814;28;20269;-40
2023/04/02 05:26:20;;;;;;;1.10;1.00;;;7.20;99.90;;;;;;5022757;28;20171;-42
2023/04/02 05:28:53;;;;;;;4.83;3.60;;;7.20;99.90;;;;;;5029966;28;20210;-44
2023/04/02 05:31:37;;;;;;;7.20;5.27;;;7.20;99.90;;;;;;5019267;28;20685;-44
2023/04/02 05:34:03;;;;;;;18.03;13.77;;;7.20;99.90;;;;;;5026357;28;20204;-42
2023/04/02 05:36:31;;;;;;;4.40;3.00;;;7.10;99.90;;;;;;5024208;28;20218;-38
2023/04/02 05:39:00;;;;;;;3.80;2.50;;;7.20;99.90;;;;;;4981731;28;20179;-42
2023/04/02 05:41:46;;;;;;;2.53;1.83;;;7.10;99.90;;;;;;4994515;28;20179;-43
2023/04/02 05:44:31;;;;;;;2.43;2.00;;;7.10;99.90;;;;;;5015832;28;20179;-43
2023/04/02 05:47:12;;;;;;;2.93;1.70;;;7.10;99.90;;;;;;4984544;28;20198;-43
2023/04/02 05:50:08;;;;;;;1.57;1.20;;;7.20;99.90;;;;;;5002120;28;20203;-43
2023/04/02 05:52:47;;;;;;;2.10;1.30;;;7.20;99.90;;;;;;4992500;28;20183;-43
2023/04/02 05:55:16;;;;;;;1.60;1.27;;;7.30;99.90;;;;;;4976897;28;20206;-44
2023/04/02 05:57:58;;;;;;;1.00;1.00;;;7.40;99.90;;;;;;4996059;28;20210;-43
2023/04/02 06:00:42;;;;;;;2.53;1.13;;;7.40;99.90;;;;;;4992319;28;20210;-42
2023/04/02 06:03:26;;;;;;;2.70;1.30;;;7.50;99.90;;;;;;5025793;28;20179;-43
2023/04/02 06:05:58;;;;;;;1.00;0.90;;;7.50;99.90;;;;;;4982379;28;20247;-43
2023/04/02 06:08:34;;;;;;;1.40;1.10;;;7.50;99.90;;;;;;4987621;28;20184;-44
2023/04/02 06:11:11;;;;;;;3.87;1.70;;;7.60;99.90;;;;;;4991325;28;20171;-44
2023/04/02 06:13:39;;;;;;;2.30;2.10;;;7.60;99.90;;;;;;5024985;28;20217;-43
2023/04/02 06:16:08;;;;;;;2.20;2.00;;;7.60;99.90;;;;;;5024734;28;20171;-40
2023/04/02 06:18:35;;;;;;;2.20;1.10;;;7.70;99.90;;;;;;5015746;28;20233;-44
2023/04/02 06:21:03;;;;;;;1.00;1.00;;;7.70;99.90;;;;;;4992804;28;20221;-43
2023/04/02 06:23:42;;;;;;;2.23;1.10;;;7.70;99.90;;;;;;4978497;28;20184;-43
2023/04/02 06:26:32;;;;;;;2.00;1.30;;;7.70;99.90;;;;;;5001069;28;20190;-43
2023/04/02 06:29:22;;;;;;;2.23;1.60;;;7.80;99.90;;;;;;4989027;28;20269;-43
2023/04/02 06:31:58;;;;;;;2.83;2.00;;;7.90;99.90;;;;;;4996598;28;20579;-44
2023/04/02 06:34:26;;;;;;;3.20;2.20;;;7.90;99.90;;;;;;4992318;28;20202;-41
2023/04/02 06:37:22;;;;;;;2.30;1.90;;;7.90;99.90;;;;;;5002296;28;20218;-43
2023/04/02 06:39:55;;;;;;;2.43;1.73;;;8.00;99.90;;;;;;5025831;28;20191;-44
2023/04/02 06:42:27;;;;;;;2.10;1.30;;;8.10;99.90;;;;;;5018438;28;20646;-41
2023/04/02 06:45:31;;;;;;;1.80;1.10;;;8.10;99.90;;;;;;5019363;28;20243;-44
2023/04/02 06:48:20;;;;;;;1.60;0.97;;;8.20;99.90;;;;;;5023387;28;20242;-44
2023/04/02 06:51:00;;;;;;;2.33;1.40;;;8.20;99.90;;;;;;5029255;28;20185;-43
2023/04/02 06:53:54;;;;;;;2.20;1.40;;;8.20;99.90;;;;;;5033876;28;20269;-43
2023/04/02 06:56:38;;;;;;;1.77;1.57;;;8.30;99.90;;;;;;5024509;28;20203;-43
2023/04/02 06:59:06;;;;;;;3.20;2.10;;;8.40;99.90;;;;;;5015741;28;20312;-42
2023/04/02 07:02:15;;;;;;;4.10;2.67;;;8.40;99.90;;;;;;5007502;28;20187;-39
2023/04/02 07:04:42;;;;;;;2.83;1.93;;;8.50;99.90;;;;;;5028727;28;20191;-43
2023/04/02 07:07:08;;;;;;;1.73;1.00;;;8.50;99.90;;;;;;5007510;28;20205;-43
2023/04/02 07:09:37;;;;;;;2.70;1.43;;;8.50;99.90;;;;;;5010082;28;20199;-44
2023/04/02 07:12:18;;;;;;;2.13;1.23;;;8.50;99.90;;;;;;5006943;28;20270;-43
2023/04/02 07:14:46;;;;;;;2.03;1.10;;;8.60;99.90;;;;;;5028043;28;20183;-43
2023/04/02 07:17:16;;;;;;;2.03;1.30;;;8.60;99.90;;;;;;5025133;28;20229;-43
2023/04/02 07:19:47;;;;;;;1.07;0.97;;;8.60;99.90;;;;;;5012919;28;20175;-40
2023/04/02 07:22:21;;;;;;;1.63;0.90;;;8.60;99.90;;;;;;5013007;28;20183;-42
2023/04/02 07:24:51;;;;;;;2.20;0.80;;;8.70;99.90;;;;;;4998510;28;20228;-42
2023/04/02 07:27:17;;;;;;;3.13;1.03;;;8.70;99.90;;;;;;5025050;28;20210;-42
2023/04/02 07:29:43;;;;;;;0.90;0.90;;;8.70;99.90;;;;;;5030103;28;20202;-41
2023/04/02 07:32:10;;;;;;;1.93;1.10;;;8.70;99.90;;;;;;5014369;28;20242;-42
2023/04/02 07:34:37;;;;;;;2.43;1.63;;;8.80;99.90;;;;;;5021026;28;20174;-41
2023/04/02 07:37:03;;;;;;;5.57;3.10;;;8.80;99.90;;;;;;5021229;28;20206;-42
2023/04/02 07:39:29;;;;;;;6.13;3.63;;;8.80;99.90;;;;;;5024882;28;20205;-41
2023/04/02 07:42:00;;;;;;;2.20;1.80;;;8.80;99.90;;;;;;5037700;28;20176;-40
2023/04/02 07:44:27;;;;;;;2.93;1.40;;;8.90;99.90;;;;;;5020547;28;20206;-40
2023/04/02 07:46:53;;;;;;;2.23;1.40;;;8.90;99.90;;;;;;5005311;28;20211;-38
2023/04/02 07:49:20;;;;;;;1.40;1.30;;;9.00;99.90;;;;;;5029685;28;20210;-44
2023/04/02 07:51:46;;;;;;;2.10;1.00;;;9.00;99.90;;;;;;5034839;28;20178;-43
2023/04/02 07:54:12;;;;;;;1.03;0.97;;;9.10;99.90;;;;;;5029351;28;20187;-42
2023/04/02 07:56:37;;;;;;;1.70;0.97;;;9.20;99.90;;;;;;5022724;28;20187;-37
2023/04/02 07:59:03;;;;;;;1.00;0.80;;;9.20;99.90;;;;;;5021418;28;20242;-42
2023/04/02 08:01:34;;;;;;;1.60;0.80;;;9.20;99.90;;;;;;5014703;28;20314;-44
2023/04/02 08:04:02;;;;;;;1.50;0.87;;;9.20;99.90;;;;;;5036869;28;20175;-42
2023/04/02 08:06:29;;;;;;;1.10;0.93;;;9.30;99.90;;;;;;5028646;28;20202;-42
2023/04/02 08:08:58;;;;;;;1.67;1.10;;;9.30;99.90;;;;;;5023770;28;20236;-40
2023/04/02 08:11:24;;;;;;;1.57;1.00;;;9.30;99.90;;;;;;5022383;28;20182;-41
2023/04/02 08:13:51;;;;;;;0.70;0.70;;;9.30;99.90;;;;;;5034455;28;20188;-42
2023/04/02 08:16:18;;;;;;;1.43;0.90;;;9.30;99.90;;;;;;5020809;28;20187;-43
2023/04/02 08:18:46;;;;;;;1.30;1.20;;;9.30;99.90;;;;;;5029166;28;20186;-44
2023/04/02 08:21:13;;;;;;;1.10;1.00;;;9.40;99.90;;;;;;5003789;28;20206;-39
2023/04/02 08:23:39;;;;;;;1.00;0.90;;;9.40;99.90;;;;;;5039216;28;20186;-42
2023/04/02 08:26:06;;;;;;;1.03;0.70;;;9.40;99.90;;;;;;5005072;28;20187;-40
2023/04/02 08:28:33;;;;;;;2.03;1.23;;;9.50;99.90;;;;;;5020013;28;20183;-39
2023/04/02 08:30:59;;;;;;;1.23;1.00;;;9.50;99.90;;;;;;5015075;28;20258;-38
2023/04/02 08:33:25;;;;;;;1.40;0.97;;;9.50;99.90;;;;;;5020833;28;20230;-42
2023/04/02 08:35:51;;;;;;;2.77;1.60;;;9.60;99.90;;;;;;5011083;28;20190;-43
2023/04/02 08:38:19;;;;;;;1.63;1.20;;;9.70;99.90;;;;;;5023159;28;20207;-44
2023/04/02 08:40:48;;;;;;;2.43;1.73;;;9.70;99.90;;;;;;5023182;28;20178;-43
2023/04/02 08:43:39;;;;;;;2.37;2.03;;;9.80;99.90;;;;;;5034850;28;20233;-38
2023/04/02 08:46:28;;;;;;;3.20;1.80;;;9.80;99.90;;;;;;5019454;28;20175;-44
2023/04/02 08:48:59;;;;;;;2.50;1.70;;;9.70;99.90;;;;;;5020102;28;20215;-44
2023/04/02 08:51:29;;;;;;;4.43;2.43;;;9.80;99.90;;;;;;5011677;28;20182;-44
2023/04/02 08:54:04;;;;;;;2.07;1.70;;;9.80;99.90;;;;;;5019414;28;20180;-40
2023/04/02 08:56:48;;;;;;;0.90;0.80;;;9.90;99.90;;;;;;5010013;28;20221;-41
2023/04/02 08:59:28;;;;;;;1.10;0.90;;;10.00;99.90;;;;;;5025485;28;20183;-42
2023/04/02 09:02:17;;;;;;;0.87;0.87;;;10.10;99.90;;;;;;5047340;28;20225;-44
2023/04/02 09:04:43;;;;;;;8.23;3.50;;;10.10;99.90;;;;;;5028435;28;20179;-42
2023/04/02 09:07:15;;;;;;;0.90;0.90;;;10.20;99.90;;;;;;5027053;28;20210;-42
2023/04/02 09:09:42;;;;;;;1.17;1.00;;;10.20;99.90;;;;;;5017459;28;20217;-43
2023/04/02 09:12:35;;;;;;;1.30;1.20;;;10.20;99.90;;;;;;5021269;28;20654;-43
2023/04/02 09:15:10;;;;;;;1.30;1.20;;;10.20;99.90;;;;;;5016683;28;20215;-41
2023/04/02 09:17:38;;;;;;;1.03;0.67;;;10.30;99.90;;;;;;5036582;28;20237;-43
2023/04/02 09:20:20;;;;;;;10.00;4.60;;;10.30;99.90;;;;;;5007044;28;20261;-43
2023/04/02 09:22:49;;;;;;;16.47;6.20;;;10.40;99.90;;;;;;5021698;28;20178;-43
2023/04/02 09:25:22;;;;;;;33.13;13.37;;;10.50;99.90;;;;;;5024377;28;20180;-44
2023/04/02 09:27:50;;;;;;;17.80;7.50;;;10.40;99.90;;;;;;5026222;28;20207;-43
2023/04/02 09:30:30;;;;;;;3.50;2.80;;;10.50;99.90;;;;;;5003048;28;20212;-43
2023/04/02 09:33:08;;;;;;;3.13;2.67;;;10.60;99.90;;;;;;5019717;28;20183;-42
2023/04/02 09:35:52;;;;;;;4.40;1.70;;;10.70;99.90;;;;;;5013359;28;20182;-44
2023/04/02 09:38:21;;;;;;;1.17;1.00;;;10.80;99.90;;;;;;5028551;28;20238;-43
2023/04/02 09:40:52;;;;;;;2.47;2.03;;;10.80;99.90;;;;;;5034703;28;20175;-41
2023/04/02 09:43:21;;;;;;;0.83;0.80;;;10.90;99.90;;;;;;5034727;28;20218;-42
2023/04/02 09:45:59;;;;;;;1.47;1.10;;;11.00;99.90;;;;;;5015294;28;20210;-43
2023/04/02 09:48:43;;;;;;;1.17;0.97;;;11.10;99.90;;;;;;5025441;28;20253;-43
2023/04/02 09:51:16;;;;;;;2.03;0.80;;;11.30;99.90;;;;;;5002995;28;20189;-43
2023/04/02 09:53:50;;;;;;;1.13;0.70;;;11.50;99.90;;;;;;5028561;28;20180;-42
2023/04/02 09:56:21;;;;;;;0.70;0.70;;;11.60;99.90;;;;;;5002690;28;20211;-42
2023/04/02 09:59:04;;;;;;;0.83;0.70;;;11.60;99.90;;;;;;5005156;28;20175;-42
2023/04/02 10:01:39;;;;;;;0.60;0.60;;;11.80;99.90;;;;;;5008550;28;20272;-43
2023/04/02 10:04:26;;;;;;;0.70;0.70;;;11.90;99.90;;;;;;5029187;28;20211;-44
2023/04/02 10:06:56;;;;;;;1.80;1.30;;;12.00;99.90;;;;;;5012640;28;20233;-40
2023/04/02 10:09:34;;;;;;;0.73;0.73;;;12.00;99.90;;;;;;5006406;28;20212;-40
2023/04/02 10:12:03;;;;;;;1.53;0.80;;;12.00;99.90;;;;;;5010127;28;20182;-43
2023/04/02 10:14:34;;;;;;;1.10;0.60;;;12.10;99.90;;;;;;4993443;28;20214;-43
2023/04/02 10:17:04;;;;;;;0.90;0.70;;;12.20;99.90;;;;;;5012022;28;20199;-44
2023/04/02 10:19:36;;;;;;;1.33;0.80;;;12.20;99.90;;;;;;5013842;28;20306;-43
2023/04/02 10:22:08;;;;;;;0.80;0.80;;;12.40;99.90;;;;;;5011629;28;20190;-40
2023/04/02 10:24:34;;;;;;;0.80;0.80;;;12.50;99.90;;;;;;5018402;28;20189;-43
2023/04/02 10:27:28;;;;;;;0.80;0.63;;;12.50;99.90;;;;;;5029562;28;20260;-43
2023/04/02 10:30:01;;;;;;;1.73;0.50;;;12.40;99.90;;;;;;5032662;28;20289;-44
2023/04/02 10:32:41;;;;;;;0.83;0.50;;;12.50;99.90;;;;;;4993134;28;20211;-43
2023/04/02 10:35:07;;;;;;;0.50;0.50;;;12.40;99.90;;;;;;5018794;28;20183;-42
2023/04/02 10:37:33;;;;;;;0.70;0.70;;;12.30;99.90;;;;;;5024764;28;20213;-43
2023/04/02 10:40:34;;;;;;;0.93;0.70;;;12.20;99.90;;;;;;5030866;28;20192;-40
2023/04/02 10:43:37;;;;;;;0.73;0.60;;;12.10;99.90;;;;;;4989338;28;20192;-43
2023/04/02 10:46:16;;;;;;;0.50;0.50;;;12.10;99.90;;;;;;5026713;28;20191;-43
2023/04/02 10:48:46;;;;;;;0.93;0.60;;;12.10;99.90;;;;;;5042562;28;20177;-44
2023/04/02 10:51:28;;;;;;;0.50;0.50;;;12.00;99.90;;;;;;5046273;28;20178;-42
2023/04/02 10:54:00;;;;;;;0.47;0.40;;;12.10;99.90;;;;;;5033745;28;20187;-40
2023/04/02 10:56:27;;;;;;;0.40;0.40;;;12.10;99.90;;;;;;5054457;28;20240;-44
2023/04/02 10:59:02;;;;;;;0.50;0.43;;;12.10;99.90;;;;;;5038530;28;20211;-42
2023/04/02 11:01:29;;;;;;;19.87;8.60;;;12.00;99.90;;;;;;5016756;28;20184;-44
2023/04/02 11:04:04;;;;;;;1.40;1.30;;;12.00;99.90;;;;;;5015600;28;20197;-42
2023/04/02 11:06:55;;;;;;;0.60;0.60;;;12.10;99.90;;;;;;5054631;28;20249;-44
2023/04/02 11:09:25;;;;;;;1.10;0.50;;;11.90;99.90;;;;;;5019139;28;20206;-44
2023/04/02 11:11:55;;;;;;;0.60;0.60;;;11.60;99.90;;;;;;5023364;28;20185;-41
2023/04/02 11:14:21;;;;;;;0.40;0.40;;;11.50;99.90;;;;;;5035170;28;20223;-42
2023/04/02 11:16:52;;;;;;;0.50;0.50;;;11.60;99.90;;;;;;5043583;28;20213;-43
2023/04/02 11:19:18;;;;;;;0.70;0.50;;;11.70;99.90;;;;;;5051593;28;20173;-44
2023/04/02 11:22:00;;;;;;;0.43;0.43;;;11.80;99.90;;;;;;5034165;28;20232;-43
2023/04/02 11:24:31;;;;;;;0.47;0.47;;;12.00;99.90;;;;;;5022373;28;20189;-39
2023/04/02 11:27:24;;;;;;;0.53;0.53;;;12.10;99.90;;;;;;5049594;28;20198;-42
2023/04/02 11:30:02;;;;;;;0.40;0.40;;;12.20;99.90;;;;;;5033263;28;20204;-43
2023/04/02 11:32:41;;;;;;;0.43;0.43;;;12.30;99.90;;;;;;5044882;28;20233;-43
2023/04/02 11:35:32;;;;;;;0.50;0.50;;;12.10;99.90;;;;;;5032778;28;20180;-43
2023/04/02 11:38:23;;;;;;;0.63;0.63;;;12.20;99.90;;;;;;5035715;28;20248;-44
2023/04/02 11:40:55;;;;;;;2.13;1.50;;;12.20;99.90;;;;;;5018815;28;20216;-43
2023/04/02 11:43:33;;;;;;;0.60;0.60;;;12.40;99.90;;;;;;5038238;28;20191;-40
2023/04/02 11:46:01;;;;;;;0.50;0.50;;;12.60;99.90;;;;;;5046337;28;20165;-43
2023/04/02 11:48:34;;;;;;;0.50;0.50;;;12.70;99.90;;;;;;5013396;28;20184;-40
2023/04/02 11:51:19;;;;;;;0.50;0.50;;;12.60;99.90;;;;;;5041228;28;20187;-44
2023/04/02 11:53:45;;;;;;;0.43;0.40;;;12.50;99.90;;;;;;5030302;28;20177;-43
2023/04/02 11:56:22;;;;;;;0.80;0.70;;;12.70;99.90;;;;;;5004578;28;20179;-44
2023/04/02 11:59:06;;;;;;;0.83;0.40;;;12.90;99.90;;;;;;5039082;28;20178;-43
2023/04/02 12:01:50;;;;;;;0.50;0.50;;;12.90;99.90;;;;;;5025091;28;20223;-43
2023/04/02 12:04:52;;;;;;;0.50;0.50;;;13.10;99.90;;;;;;5039044;28;20178;-44
2023/04/02 12:07:51;;;;;;;0.67;0.50;;;13.20;99.90;;;;;;5032139;28;20193;-43
2023/04/02 12:10:23;;;;;;;0.40;0.40;;;13.40;99.90;;;;;;5031242;28;20201;-43
2023/04/02 12:12:50;;;;;;;1.57;0.50;;;13.60;99.90;;;;;;5033490;28;20183;-43
2023/04/02 12:15:45;;;;;;;0.77;0.50;;;13.50;99.90;;;;;;5028843;28;20182;-43
2023/04/02 12:18:22;;;;;;;0.50;0.50;;;13.70;99.90;;;;;;5008776;28;20228;-42
2023/04/02 12:20:52;;;;;;;0.50;0.40;;;13.90;99.90;;;;;;5014159;28;20174;-44
2023/04/02 12:23:31;;;;;;;0.57;0.50;;;14.10;99.90;;;;;;5015649;28;20209;-44
2023/04/02 12:26:23;;;;;;;0.57;0.50;;;14.00;99.90;;;;;;5035610;28;20213;-42
2023/04/02 12:28:48;;;;;;;0.43;0.40;;;13.90;99.90;;;;;;5031146;28;20174;-41
2023/04/02 12:31:18;;;;;;;0.40;0.40;;;13.30;99.90;;;;;;5006762;28;20193;-44
2023/04/02 12:33:44;;;;;;;0.50;0.50;;;13.50;99.90;;;;;;5034575;28;20192;-44
2023/04/02 12:36:10;;;;;;;2.27;0.60;;;13.30;99.90;;;;;;5042829;28;20178;-42
2023/04/02 12:38:51;;;;;;;0.87;0.50;;;13.30;99.90;;;;;;5052552;28;20177;-43
2023/04/02 12:41:23;;;;;;;0.60;0.60;;;12.80;99.90;;;;;;5033466;28;20178;-42
2023/04/02 12:44:15;;;;;;;1.77;0.70;;;12.40;99.90;;;;;;5019948;28;20186;-41
2023/04/02 12:46:45;;;;;;;0.57;0.50;;;12.20;99.90;;;;;;5035639;28;20240;-42
2023/04/02 12:49:26;;;;;;;0.53;0.40;;;12.20;99.90;;;;;;5046401;28;20254;-42
2023/04/02 12:51:53;;;;;;;0.80;0.60;;;12.20;99.90;;;;;;5049623;28;20215;-43
2023/04/02 12:54:21;;;;;;;0.50;0.50;;;12.00;99.90;;;;;;5038840;28;20180;-41
2023/04/02 12:56:47;;;;;;;1.53;0.60;;;12.10;99.90;;;;;;5048561;28;20209;-43
2023/04/02 12:59:28;;;;;;;0.53;0.50;;;12.10;99.90;;;;;;5001942;28;20191;-42
2023/04/02 13:01:56;;;;;;;0.97;0.50;;;12.20;99.90;;;;;;5042532;28;20189;-42
2023/04/02 13:04:22;;;;;;;0.50;0.50;;;12.30;99.90;;;;;;5027215;28;20194;-40
2023/04/02 13:06:53;;;;;;;0.50;0.50;;;12.20;99.90;;;;;;5028277;28;20286;-42
2023/04/02 13:09:56;;;;;;;0.60;0.60;;;12.20;99.90;;;;;;5030735;28;20204;-41
2023/04/02 13:12:26;;;;;;;0.53;0.53;;;12.20;99.90;;;;;;5038648;28;20207;-42
2023/04/02 13:14:56;;;;;;;1.03;0.50;;;12.20;99.90;;;;;;5025330;28;20187;-42
2023/04/02 13:17:47;;;;;;;0.50;0.50;;;12.30;99.90;;;;;;5015076;28;20197;-43
2023/04/02 13:20:36;;;;;;;0.80;0.70;;;12.40;99.90;;;;;;5036380;28;20400;-43
2023/04/02 13:23:42;;;;;;;0.93;0.70;;;12.60;99.90;;;;;;5026451;28;20248;-43
2023/04/02 13:26:26;;;;;;;0.60;0.60;;;12.60;99.90;;;;;;5024090;28;20200;-43
2023/04/02 13:29:03;;;;;;;0.77;0.77;;;12.70;99.90;;;;;;5035190;28;20232;-42
2023/04/02 13:31:30;;;;;;;0.60;0.60;;;12.80;99.90;;;;;;5018523;28;20189;-42
2023/04/02 13:33:57;;;;;;;0.77;0.60;;;12.70;99.90;;;;;;5020107;28;20189;-43
2023/04/02 13:36:24;;;;;;;0.60;0.60;;;12.70;99.90;;;;;;5034599;28;20259;-43
2023/04/02 13:38:50;;;;;;;0.70;0.60;;;12.60;99.90;;;;;;5033040;28;20178;-42
2023/04/02 13:41:29;;;;;;;0.90;0.60;;;12.60;99.90;;;;;;5030146;28;20182;-42